<?xml version="1.0" encoding="UTF-8" standalone="no" ?>
<gpx xmlns="http://www.topografix.com/GPX/1/1" xmlns:xsi="http://www.w3.org/2001/XMLSchema-instance" xsi:schemaLocation="http://www.topografix.com/GPX/1/1 http://www.topografix.com/GPX/1/1/gpx.xsd" version="1.1" creator="VisuGPX - https://www.visugpx.com">
  <metadata>
    <name>Classique des monts du lyonnais</name>
    <desc><![CDATA[La sortie classique des monts du Lyonnais à partir de Lozanne]]></desc>
  </metadata>
  <trk>
    <name><![CDATA[28-JUN-09B-MNT]]></name>
    <trkseg>
      <trkpt lat="45.85567" lon="4.67921">
        <ele>202</ele>
        <time>2009-06-28T08:23:30Z</time>
      </trkpt>
      <trkpt lat="45.85648" lon="4.68082">
        <ele>201</ele>
        <time>2009-06-28T08:23:56Z</time>
      </trkpt>
      <trkpt lat="45.8568" lon="4.68084">
        <ele>202</ele>
        <time>2009-06-28T08:24:05Z</time>
      </trkpt>
      <trkpt lat="45.85713" lon="4.68035">
        <ele>204</ele>
        <time>2009-06-28T08:25:08Z</time>
      </trkpt>
      <trkpt lat="45.85665" lon="4.68095">
        <ele>201</ele>
        <time>2009-06-28T08:36:05Z</time>
      </trkpt>
      <trkpt lat="45.85616" lon="4.6802">
        <ele>202</ele>
        <time>2009-06-28T08:36:28Z</time>
      </trkpt>
      <trkpt lat="45.85571" lon="4.67919">
        <ele>202</ele>
        <time>2009-06-28T08:36:52Z</time>
      </trkpt>
      <trkpt lat="45.85552" lon="4.67938">
        <ele>201</ele>
        <time>2009-06-28T08:37:00Z</time>
      </trkpt>
      <trkpt lat="45.85528" lon="4.67945">
        <ele>203</ele>
        <time>2009-06-28T08:37:10Z</time>
      </trkpt>
      <trkpt lat="45.85487" lon="4.67797">
        <ele>210</ele>
        <time>2009-06-28T08:37:41Z</time>
      </trkpt>
      <trkpt lat="45.85496" lon="4.67726">
        <ele>205</ele>
        <time>2009-06-28T08:37:55Z</time>
      </trkpt>
      <trkpt lat="45.85616" lon="4.6758">
        <ele>205</ele>
        <time>2009-06-28T08:38:34Z</time>
      </trkpt>
      <trkpt lat="45.85676" lon="4.67522">
        <ele>207</ele>
        <time>2009-06-28T08:38:52Z</time>
      </trkpt>
      <trkpt lat="45.85745" lon="4.67423">
        <ele>207</ele>
        <time>2009-06-28T08:39:13Z</time>
      </trkpt>
      <trkpt lat="45.85775" lon="4.6735">
        <ele>203</ele>
        <time>2009-06-28T08:39:24Z</time>
      </trkpt>
      <trkpt lat="45.85764" lon="4.67312">
        <ele>204</ele>
        <time>2009-06-28T08:39:30Z</time>
      </trkpt>
      <trkpt lat="45.85586" lon="4.6717">
        <ele>225</ele>
        <time>2009-06-28T08:40:13Z</time>
      </trkpt>
      <trkpt lat="45.85524" lon="4.66964">
        <ele>206</ele>
        <time>2009-06-28T08:40:47Z</time>
      </trkpt>
      <trkpt lat="45.85485" lon="4.66561">
        <ele>212</ele>
        <time>2009-06-28T08:41:54Z</time>
      </trkpt>
      <trkpt lat="45.85459" lon="4.66466">
        <ele>219</ele>
        <time>2009-06-28T08:42:21Z</time>
      </trkpt>
      <trkpt lat="45.85474" lon="4.66359">
        <ele>223</ele>
        <time>2009-06-28T08:42:55Z</time>
      </trkpt>
      <trkpt lat="45.85505" lon="4.66131">
        <ele>227</ele>
        <time>2009-06-28T08:43:48Z</time>
      </trkpt>
      <trkpt lat="45.85492" lon="4.6602">
        <ele>227</ele>
        <time>2009-06-28T08:44:06Z</time>
      </trkpt>
      <trkpt lat="45.8547" lon="4.65889">
        <ele>223</ele>
        <time>2009-06-28T08:44:29Z</time>
      </trkpt>
      <trkpt lat="45.85487" lon="4.65803">
        <ele>225</ele>
        <time>2009-06-28T08:44:45Z</time>
      </trkpt>
      <trkpt lat="45.85507" lon="4.65713">
        <ele>226</ele>
        <time>2009-06-28T08:45:02Z</time>
      </trkpt>
      <trkpt lat="45.855" lon="4.65614">
        <ele>226</ele>
        <time>2009-06-28T08:45:20Z</time>
      </trkpt>
      <trkpt lat="45.85468" lon="4.65563">
        <ele>227</ele>
        <time>2009-06-28T08:45:33Z</time>
      </trkpt>
      <trkpt lat="45.85399" lon="4.65541">
        <ele>230</ele>
        <time>2009-06-28T08:45:53Z</time>
      </trkpt>
      <trkpt lat="45.85211" lon="4.65559">
        <ele>245</ele>
        <time>2009-06-28T08:47:07Z</time>
      </trkpt>
      <trkpt lat="45.84996" lon="4.65674">
        <ele>264</ele>
        <time>2009-06-28T08:48:56Z</time>
      </trkpt>
      <trkpt lat="45.84717" lon="4.65692">
        <ele>281</ele>
        <time>2009-06-28T08:50:56Z</time>
      </trkpt>
      <trkpt lat="45.8458" lon="4.65968">
        <ele>279</ele>
        <time>2009-06-28T08:52:11Z</time>
      </trkpt>
      <trkpt lat="45.84517" lon="4.66046">
        <ele>281</ele>
        <time>2009-06-28T08:52:47Z</time>
      </trkpt>
      <trkpt lat="45.84419" lon="4.66187">
        <ele>277</ele>
        <time>2009-06-28T08:53:32Z</time>
      </trkpt>
      <trkpt lat="45.84372" lon="4.66226">
        <ele>277</ele>
        <time>2009-06-28T08:53:48Z</time>
      </trkpt>
      <trkpt lat="45.84342" lon="4.66054">
        <ele>289</ele>
        <time>2009-06-28T08:54:32Z</time>
      </trkpt>
      <trkpt lat="45.84266" lon="4.65981">
        <ele>297</ele>
        <time>2009-06-28T08:55:07Z</time>
      </trkpt>
      <trkpt lat="45.84163" lon="4.6593">
        <ele>299</ele>
        <time>2009-06-28T08:55:43Z</time>
      </trkpt>
      <trkpt lat="45.84125" lon="4.65868">
        <ele>299</ele>
        <time>2009-06-28T08:56:02Z</time>
      </trkpt>
      <trkpt lat="45.84118" lon="4.65792">
        <ele>301</ele>
        <time>2009-06-28T08:56:20Z</time>
      </trkpt>
      <trkpt lat="45.84161" lon="4.65631">
        <ele>305</ele>
        <time>2009-06-28T08:56:57Z</time>
      </trkpt>
      <trkpt lat="45.84155" lon="4.65563">
        <ele>308</ele>
        <time>2009-06-28T08:57:14Z</time>
      </trkpt>
      <trkpt lat="45.84123" lon="4.65518">
        <ele>310</ele>
        <time>2009-06-28T08:57:31Z</time>
      </trkpt>
      <trkpt lat="45.84071" lon="4.65402">
        <ele>320</ele>
        <time>2009-06-28T08:58:11Z</time>
      </trkpt>
      <trkpt lat="45.84069" lon="4.6538">
        <ele>321</ele>
        <time>2009-06-28T08:58:16Z</time>
      </trkpt>
      <trkpt lat="45.84144" lon="4.65322">
        <ele>324</ele>
        <time>2009-06-28T08:58:46Z</time>
      </trkpt>
      <trkpt lat="45.8414" lon="4.65305">
        <ele>325</ele>
        <time>2009-06-28T08:58:51Z</time>
      </trkpt>
      <trkpt lat="45.84086" lon="4.65256">
        <ele>327</ele>
        <time>2009-06-28T08:59:12Z</time>
      </trkpt>
      <trkpt lat="45.83992" lon="4.65269">
        <ele>331</ele>
        <time>2009-06-28T08:59:44Z</time>
      </trkpt>
      <trkpt lat="45.83932" lon="4.65271">
        <ele>331</ele>
        <time>2009-06-28T09:00:02Z</time>
      </trkpt>
      <trkpt lat="45.83925" lon="4.65125">
        <ele>339</ele>
        <time>2009-06-28T09:00:39Z</time>
      </trkpt>
      <trkpt lat="45.84157" lon="4.64898">
        <ele>349</ele>
        <time>2009-06-28T09:01:55Z</time>
      </trkpt>
      <trkpt lat="45.83902" lon="4.64651">
        <ele>370</ele>
        <time>2009-06-28T09:04:10Z</time>
      </trkpt>
      <trkpt lat="45.83848" lon="4.64537">
        <ele>377</ele>
        <time>2009-06-28T09:04:45Z</time>
      </trkpt>
      <trkpt lat="45.83781" lon="4.64357">
        <ele>374</ele>
        <time>2009-06-28T09:05:24Z</time>
      </trkpt>
      <trkpt lat="45.83511" lon="4.64003">
        <ele>355</ele>
        <time>2009-06-28T09:06:25Z</time>
      </trkpt>
      <trkpt lat="45.83457" lon="4.63934">
        <ele>354</ele>
        <time>2009-06-28T09:06:36Z</time>
      </trkpt>
      <trkpt lat="45.83155" lon="4.63801">
        <ele>376</ele>
        <time>2009-06-28T09:08:17Z</time>
      </trkpt>
      <trkpt lat="45.82927" lon="4.63632">
        <ele>384</ele>
        <time>2009-06-28T09:09:49Z</time>
      </trkpt>
      <trkpt lat="45.82636" lon="4.63542">
        <ele>373</ele>
        <time>2009-06-28T09:11:06Z</time>
      </trkpt>
      <trkpt lat="45.82187" lon="4.63241">
        <ele>372</ele>
        <time>2009-06-28T09:12:54Z</time>
      </trkpt>
      <trkpt lat="45.82202" lon="4.63142">
        <ele>374</ele>
        <time>2009-06-28T09:13:15Z</time>
      </trkpt>
      <trkpt lat="45.8217" lon="4.63168">
        <ele>377</ele>
        <time>2009-06-28T09:13:34Z</time>
      </trkpt>
      <trkpt lat="45.82046" lon="4.63074">
        <ele>405</ele>
        <time>2009-06-28T09:15:02Z</time>
      </trkpt>
      <trkpt lat="45.81975" lon="4.63153">
        <ele>404</ele>
        <time>2009-06-28T09:19:02Z</time>
      </trkpt>
      <trkpt lat="45.81921" lon="4.63048">
        <ele>419</ele>
        <time>2009-06-28T09:19:53Z</time>
      </trkpt>
      <trkpt lat="45.81882" lon="4.63029">
        <ele>422</ele>
        <time>2009-06-28T09:20:16Z</time>
      </trkpt>
      <trkpt lat="45.81822" lon="4.63007">
        <ele>424</ele>
        <time>2009-06-28T09:20:49Z</time>
      </trkpt>
      <trkpt lat="45.8176" lon="4.63059">
        <ele>424</ele>
        <time>2009-06-28T09:21:23Z</time>
      </trkpt>
      <trkpt lat="45.81627" lon="4.63039">
        <ele>416</ele>
        <time>2009-06-28T09:22:01Z</time>
      </trkpt>
      <trkpt lat="45.81657" lon="4.63179">
        <ele>419</ele>
        <time>2009-06-28T09:22:39Z</time>
      </trkpt>
      <trkpt lat="45.81614" lon="4.6323">
        <ele>422</ele>
        <time>2009-06-28T09:23:01Z</time>
      </trkpt>
      <trkpt lat="45.81543" lon="4.63316">
        <ele>438</ele>
        <time>2009-06-28T09:23:50Z</time>
      </trkpt>
      <trkpt lat="45.81385" lon="4.63256">
        <ele>450</ele>
        <time>2009-06-28T09:25:32Z</time>
      </trkpt>
      <trkpt lat="45.8135" lon="4.6331">
        <ele>461</ele>
        <time>2009-06-28T09:26:03Z</time>
      </trkpt>
      <trkpt lat="45.81305" lon="4.63314">
        <ele>466</ele>
        <time>2009-06-28T09:26:35Z</time>
      </trkpt>
      <trkpt lat="45.81243" lon="4.6346">
        <ele>474</ele>
        <time>2009-06-28T09:27:41Z</time>
      </trkpt>
      <trkpt lat="45.81134" lon="4.63355">
        <ele>486</ele>
        <time>2009-06-28T09:29:24Z</time>
      </trkpt>
      <trkpt lat="45.81033" lon="4.63316">
        <ele>490</ele>
        <time>2009-06-28T09:30:56Z</time>
      </trkpt>
      <trkpt lat="45.80975" lon="4.63284">
        <ele>489</ele>
        <time>2009-06-28T09:31:54Z</time>
      </trkpt>
      <trkpt lat="45.80865" lon="4.63115">
        <ele>489</ele>
        <time>2009-06-28T09:32:36Z</time>
      </trkpt>
      <trkpt lat="45.80887" lon="4.63072">
        <ele>498</ele>
        <time>2009-06-28T09:33:06Z</time>
      </trkpt>
      <trkpt lat="45.80861" lon="4.63106">
        <ele>489</ele>
        <time>2009-06-28T09:33:51Z</time>
      </trkpt>
      <trkpt lat="45.80874" lon="4.63123">
        <ele>489</ele>
        <time>2009-06-28T09:33:59Z</time>
      </trkpt>
      <trkpt lat="45.80979" lon="4.63288">
        <ele>489</ele>
        <time>2009-06-28T09:34:52Z</time>
      </trkpt>
      <trkpt lat="45.81035" lon="4.63316">
        <ele>490</ele>
        <time>2009-06-28T09:35:19Z</time>
      </trkpt>
      <trkpt lat="45.81001" lon="4.6358">
        <ele>439</ele>
        <time>2009-06-28T09:36:41Z</time>
      </trkpt>
      <trkpt lat="45.81016" lon="4.63587">
        <ele>437</ele>
        <time>2009-06-28T09:37:18Z</time>
      </trkpt>
      <trkpt lat="45.81026" lon="4.63593">
        <ele>433</ele>
        <time>2009-06-28T09:37:27Z</time>
      </trkpt>
      <trkpt lat="45.81078" lon="4.63599">
        <ele>422</ele>
        <time>2009-06-28T09:38:05Z</time>
      </trkpt>
      <trkpt lat="45.81155" lon="4.63647">
        <ele>421</ele>
        <time>2009-06-28T09:38:25Z</time>
      </trkpt>
      <trkpt lat="45.81273" lon="4.63765">
        <ele>421</ele>
        <time>2009-06-28T09:38:56Z</time>
      </trkpt>
      <trkpt lat="45.81331" lon="4.63835">
        <ele>410</ele>
        <time>2009-06-28T09:39:05Z</time>
      </trkpt>
      <trkpt lat="45.81402" lon="4.6387">
        <ele>403</ele>
        <time>2009-06-28T09:39:23Z</time>
      </trkpt>
      <trkpt lat="45.8138" lon="4.63981">
        <ele>389</ele>
        <time>2009-06-28T09:39:39Z</time>
      </trkpt>
      <trkpt lat="45.81398" lon="4.64009">
        <ele>386</ele>
        <time>2009-06-28T09:39:47Z</time>
      </trkpt>
      <trkpt lat="45.81421" lon="4.64024">
        <ele>383</ele>
        <time>2009-06-28T09:39:54Z</time>
      </trkpt>
      <trkpt lat="45.81432" lon="4.64097">
        <ele>375</ele>
        <time>2009-06-28T09:40:05Z</time>
      </trkpt>
      <trkpt lat="45.81423" lon="4.64198">
        <ele>366</ele>
        <time>2009-06-28T09:40:14Z</time>
      </trkpt>
      <trkpt lat="45.8141" lon="4.64256">
        <ele>361</ele>
        <time>2009-06-28T09:40:21Z</time>
      </trkpt>
      <trkpt lat="45.81434" lon="4.64361">
        <ele>354</ele>
        <time>2009-06-28T09:40:37Z</time>
      </trkpt>
      <trkpt lat="45.81408" lon="4.64599">
        <ele>348</ele>
        <time>2009-06-28T09:41:35Z</time>
      </trkpt>
      <trkpt lat="45.81333" lon="4.64629">
        <ele>340</ele>
        <time>2009-06-28T09:41:51Z</time>
      </trkpt>
      <trkpt lat="45.81284" lon="4.64655">
        <ele>336</ele>
        <time>2009-06-28T09:42:00Z</time>
      </trkpt>
      <trkpt lat="45.81239" lon="4.64687">
        <ele>334</ele>
        <time>2009-06-28T09:42:09Z</time>
      </trkpt>
      <trkpt lat="45.81254" lon="4.64808">
        <ele>330</ele>
        <time>2009-06-28T09:42:11Z</time>
      </trkpt>
      <trkpt lat="45.81219" lon="4.6479">
        <ele>329</ele>
        <time>2009-06-28T09:42:18Z</time>
      </trkpt>
      <trkpt lat="45.81181" lon="4.6484">
        <ele>328</ele>
        <time>2009-06-28T09:42:28Z</time>
      </trkpt>
      <trkpt lat="45.81146" lon="4.64966">
        <ele>323</ele>
        <time>2009-06-28T09:42:57Z</time>
      </trkpt>
      <trkpt lat="45.81097" lon="4.64771">
        <ele>335</ele>
        <time>2009-06-28T09:45:44Z</time>
      </trkpt>
      <trkpt lat="45.80853" lon="4.64411">
        <ele>365</ele>
        <time>2009-06-28T09:50:22Z</time>
      </trkpt>
      <trkpt lat="45.8073" lon="4.64239">
        <ele>388</ele>
        <time>2009-06-28T09:52:01Z</time>
      </trkpt>
      <trkpt lat="45.80685" lon="4.64153">
        <ele>394</ele>
        <time>2009-06-28T09:52:41Z</time>
      </trkpt>
      <trkpt lat="45.80636" lon="4.64144">
        <ele>395</ele>
        <time>2009-06-28T09:53:05Z</time>
      </trkpt>
      <trkpt lat="45.80672" lon="4.64142">
        <ele>394</ele>
        <time>2009-06-28T09:53:48Z</time>
      </trkpt>
      <trkpt lat="45.80657" lon="4.64127">
        <ele>394</ele>
        <time>2009-06-28T09:54:01Z</time>
      </trkpt>
      <trkpt lat="45.80625" lon="4.64175">
        <ele>397</ele>
        <time>2009-06-28T09:54:28Z</time>
      </trkpt>
      <trkpt lat="45.80606" lon="4.64301">
        <ele>397</ele>
        <time>2009-06-28T09:54:59Z</time>
      </trkpt>
      <trkpt lat="45.80537" lon="4.64477">
        <ele>400</ele>
        <time>2009-06-28T09:55:37Z</time>
      </trkpt>
      <trkpt lat="45.80436" lon="4.64775">
        <ele>412</ele>
        <time>2009-06-28T09:56:47Z</time>
      </trkpt>
      <trkpt lat="45.80404" lon="4.64801">
        <ele>417</ele>
        <time>2009-06-28T09:57:12Z</time>
      </trkpt>
      <trkpt lat="45.80419" lon="4.64659">
        <ele>416</ele>
        <time>2009-06-28T09:58:36Z</time>
      </trkpt>
      <trkpt lat="45.80441" lon="4.64672">
        <ele>412</ele>
        <time>2009-06-28T09:59:00Z</time>
      </trkpt>
      <trkpt lat="45.80331" lon="4.64576">
        <ele>428</ele>
        <time>2009-06-28T10:00:02Z</time>
      </trkpt>
      <trkpt lat="45.80245" lon="4.64533">
        <ele>426</ele>
        <time>2009-06-28T10:00:13Z</time>
      </trkpt>
      <trkpt lat="45.80207" lon="4.64554">
        <ele>427</ele>
        <time>2009-06-28T10:00:23Z</time>
      </trkpt>
      <trkpt lat="45.80147" lon="4.64524">
        <ele>420</ele>
        <time>2009-06-28T10:00:35Z</time>
      </trkpt>
      <trkpt lat="45.80123" lon="4.64548">
        <ele>418</ele>
        <time>2009-06-28T10:00:44Z</time>
      </trkpt>
      <trkpt lat="45.80007" lon="4.64657">
        <ele>394</ele>
        <time>2009-06-28T10:01:23Z</time>
      </trkpt>
      <trkpt lat="45.79981" lon="4.649">
        <ele>401</ele>
        <time>2009-06-28T10:02:49Z</time>
      </trkpt>
      <trkpt lat="45.79855" lon="4.65104">
        <ele>404</ele>
        <time>2009-06-28T10:03:48Z</time>
      </trkpt>
      <trkpt lat="45.79816" lon="4.65114">
        <ele>401</ele>
        <time>2009-06-28T10:03:58Z</time>
      </trkpt>
      <trkpt lat="45.79679" lon="4.65121">
        <ele>417</ele>
        <time>2009-06-28T10:05:07Z</time>
      </trkpt>
      <trkpt lat="45.7967" lon="4.65114">
        <ele>417</ele>
        <time>2009-06-28T10:05:17Z</time>
      </trkpt>
      <trkpt lat="45.79632" lon="4.65086">
        <ele>418</ele>
        <time>2009-06-28T10:05:33Z</time>
      </trkpt>
      <trkpt lat="45.79576" lon="4.65039">
        <ele>421</ele>
        <time>2009-06-28T10:06:06Z</time>
      </trkpt>
      <trkpt lat="45.79374" lon="4.64951">
        <ele>436</ele>
        <time>2009-06-28T10:08:06Z</time>
      </trkpt>
      <trkpt lat="45.79342" lon="4.64983">
        <ele>443</ele>
        <time>2009-06-28T10:15:01Z</time>
      </trkpt>
      <trkpt lat="45.79441" lon="4.65091">
        <ele>451</ele>
        <time>2009-06-28T10:16:08Z</time>
      </trkpt>
      <trkpt lat="45.79484" lon="4.65164">
        <ele>459</ele>
        <time>2009-06-28T10:16:49Z</time>
      </trkpt>
      <trkpt lat="45.79449" lon="4.65292">
        <ele>475</ele>
        <time>2009-06-28T10:17:56Z</time>
      </trkpt>
      <trkpt lat="45.79335" lon="4.6535">
        <ele>490</ele>
        <time>2009-06-28T10:19:17Z</time>
      </trkpt>
      <trkpt lat="45.79282" lon="4.65441">
        <ele>498</ele>
        <time>2009-06-28T10:20:01Z</time>
      </trkpt>
      <trkpt lat="45.7928" lon="4.65488">
        <ele>497</ele>
        <time>2009-06-28T10:20:27Z</time>
      </trkpt>
      <trkpt lat="45.79245" lon="4.65565">
        <ele>503</ele>
        <time>2009-06-28T10:20:32Z</time>
      </trkpt>
      <trkpt lat="45.79117" lon="4.65717">
        <ele>500</ele>
        <time>2009-06-28T10:21:53Z</time>
      </trkpt>
      <trkpt lat="45.79099" lon="4.65715">
        <ele>501</ele>
        <time>2009-06-28T10:22:09Z</time>
      </trkpt>
      <trkpt lat="45.79016" lon="4.65636">
        <ele>503</ele>
        <time>2009-06-28T10:27:46Z</time>
      </trkpt>
      <trkpt lat="45.78988" lon="4.65518">
        <ele>511</ele>
        <time>2009-06-28T10:28:23Z</time>
      </trkpt>
      <trkpt lat="45.78994" lon="4.6537">
        <ele>522</ele>
        <time>2009-06-28T10:29:41Z</time>
      </trkpt>
      <trkpt lat="45.79001" lon="4.65245">
        <ele>528</ele>
        <time>2009-06-28T10:30:25Z</time>
      </trkpt>
      <trkpt lat="45.79048" lon="4.64996">
        <ele>518</ele>
        <time>2009-06-28T10:31:44Z</time>
      </trkpt>
      <trkpt lat="45.79016" lon="4.64973">
        <ele>527</ele>
        <time>2009-06-28T10:31:45Z</time>
      </trkpt>
      <trkpt lat="45.79039" lon="4.64945">
        <ele>520</ele>
        <time>2009-06-28T10:31:53Z</time>
      </trkpt>
      <trkpt lat="45.78988" lon="4.64857">
        <ele>523</ele>
        <time>2009-06-28T10:32:10Z</time>
      </trkpt>
      <trkpt lat="45.78917" lon="4.6478">
        <ele>528</ele>
        <time>2009-06-28T10:32:24Z</time>
      </trkpt>
      <trkpt lat="45.78823" lon="4.64619">
        <ele>537</ele>
        <time>2009-06-28T10:33:31Z</time>
      </trkpt>
      <trkpt lat="45.78838" lon="4.6446">
        <ele>524</ele>
        <time>2009-06-28T10:34:23Z</time>
      </trkpt>
      <trkpt lat="45.78808" lon="4.64338">
        <ele>525</ele>
        <time>2009-06-28T10:35:02Z</time>
      </trkpt>
      <trkpt lat="45.78825" lon="4.64226">
        <ele>528</ele>
        <time>2009-06-28T10:35:12Z</time>
      </trkpt>
      <trkpt lat="45.78844" lon="4.64226">
        <ele>527</ele>
        <time>2009-06-28T10:35:24Z</time>
      </trkpt>
      <trkpt lat="45.78881" lon="4.64147">
        <ele>534</ele>
        <time>2009-06-28T10:35:43Z</time>
      </trkpt>
      <trkpt lat="45.78775" lon="4.64155">
        <ele>540</ele>
        <time>2009-06-28T10:36:51Z</time>
      </trkpt>
      <trkpt lat="45.78713" lon="4.64074">
        <ele>555</ele>
        <time>2009-06-28T10:37:47Z</time>
      </trkpt>
      <trkpt lat="45.78666" lon="4.64054">
        <ele>563</ele>
        <time>2009-06-28T10:38:23Z</time>
      </trkpt>
      <trkpt lat="45.78623" lon="4.64016">
        <ele>566</ele>
        <time>2009-06-28T10:39:03Z</time>
      </trkpt>
      <trkpt lat="45.78595" lon="4.64039">
        <ele>570</ele>
        <time>2009-06-28T10:39:33Z</time>
      </trkpt>
      <trkpt lat="45.78584" lon="4.64136">
        <ele>583</ele>
        <time>2009-06-28T10:42:26Z</time>
      </trkpt>
      <trkpt lat="45.78462" lon="4.64172">
        <ele>604</ele>
        <time>2009-06-28T10:44:19Z</time>
      </trkpt>
      <trkpt lat="45.78351" lon="4.64155">
        <ele>621</ele>
        <time>2009-06-28T10:45:39Z</time>
      </trkpt>
      <trkpt lat="45.78323" lon="4.64153">
        <ele>626</ele>
        <time>2009-06-28T10:46:02Z</time>
      </trkpt>
      <trkpt lat="45.78202" lon="4.64065">
        <ele>628</ele>
        <time>2009-06-28T10:52:56Z</time>
      </trkpt>
      <trkpt lat="45.78168" lon="4.64052">
        <ele>628</ele>
        <time>2009-06-28T10:53:06Z</time>
      </trkpt>
      <trkpt lat="45.77949" lon="4.63986">
        <ele>615</ele>
        <time>2009-06-28T10:53:52Z</time>
      </trkpt>
      <trkpt lat="45.77836" lon="4.63962">
        <ele>602</ele>
        <time>2009-06-28T10:54:11Z</time>
      </trkpt>
      <trkpt lat="45.77795" lon="4.63988">
        <ele>600</ele>
        <time>2009-06-28T10:54:36Z</time>
      </trkpt>
      <trkpt lat="45.7758" lon="4.63844">
        <ele>603</ele>
        <time>2009-06-28T10:55:57Z</time>
      </trkpt>
      <trkpt lat="45.77475" lon="4.63752">
        <ele>626</ele>
        <time>2009-06-28T10:57:20Z</time>
      </trkpt>
      <trkpt lat="45.77432" lon="4.63767">
        <ele>637</ele>
        <time>2009-06-28T10:57:58Z</time>
      </trkpt>
      <trkpt lat="45.77396" lon="4.63793">
        <ele>645</ele>
        <time>2009-06-28T10:58:34Z</time>
      </trkpt>
      <trkpt lat="45.77394" lon="4.63795">
        <ele>645</ele>
        <time>2009-06-28T10:58:36Z</time>
      </trkpt>
      <trkpt lat="45.77316" lon="4.63838">
        <ele>654</ele>
        <time>2009-06-28T10:59:39Z</time>
      </trkpt>
      <trkpt lat="45.77239" lon="4.63788">
        <ele>663</ele>
        <time>2009-06-28T11:00:30Z</time>
      </trkpt>
      <trkpt lat="45.77207" lon="4.6372">
        <ele>671</ele>
        <time>2009-06-28T11:04:24Z</time>
      </trkpt>
      <trkpt lat="45.77007" lon="4.63692">
        <ele>706</ele>
        <time>2009-06-28T11:07:27Z</time>
      </trkpt>
      <trkpt lat="45.76949" lon="4.63664">
        <ele>709</ele>
        <time>2009-06-28T11:08:10Z</time>
      </trkpt>
      <trkpt lat="45.769" lon="4.63599">
        <ele>710</ele>
        <time>2009-06-28T11:08:59Z</time>
      </trkpt>
      <trkpt lat="45.76915" lon="4.63589">
        <ele>712</ele>
        <time>2009-06-28T11:10:48Z</time>
      </trkpt>
      <trkpt lat="45.76838" lon="4.63376">
        <ele>715</ele>
        <time>2009-06-28T11:12:03Z</time>
      </trkpt>
      <trkpt lat="45.76748" lon="4.63282">
        <ele>712</ele>
        <time>2009-06-28T11:13:03Z</time>
      </trkpt>
      <trkpt lat="45.76711" lon="4.63187">
        <ele>715</ele>
        <time>2009-06-28T11:13:38Z</time>
      </trkpt>
      <trkpt lat="45.76578" lon="4.63057">
        <ele>724</ele>
        <time>2009-06-28T11:14:25Z</time>
      </trkpt>
      <trkpt lat="45.76675" lon="4.62994">
        <ele>725</ele>
        <time>2009-06-28T11:15:07Z</time>
      </trkpt>
      <trkpt lat="45.76724" lon="4.6308">
        <ele>727</ele>
        <time>2009-06-28T11:15:47Z</time>
      </trkpt>
      <trkpt lat="45.76836" lon="4.63226">
        <ele>729</ele>
        <time>2009-06-28T11:16:21Z</time>
      </trkpt>
      <trkpt lat="45.76967" lon="4.63282">
        <ele>724</ele>
        <time>2009-06-28T11:16:58Z</time>
      </trkpt>
      <trkpt lat="45.77037" lon="4.63434">
        <ele>732</ele>
        <time>2009-06-28T11:18:38Z</time>
      </trkpt>
      <trkpt lat="45.77153" lon="4.63443">
        <ele>714</ele>
        <time>2009-06-28T11:19:53Z</time>
      </trkpt>
      <trkpt lat="45.77149" lon="4.63494">
        <ele>714</ele>
        <time>2009-06-28T11:20:16Z</time>
      </trkpt>
      <trkpt lat="45.77185" lon="4.63595">
        <ele>695</ele>
        <time>2009-06-28T11:20:23Z</time>
      </trkpt>
      <trkpt lat="45.77181" lon="4.63645">
        <ele>687</ele>
        <time>2009-06-28T11:20:43Z</time>
      </trkpt>
      <trkpt lat="45.77237" lon="4.63696">
        <ele>672</ele>
        <time>2009-06-28T11:21:04Z</time>
      </trkpt>
      <trkpt lat="45.77215" lon="4.63745">
        <ele>668</ele>
        <time>2009-06-28T11:21:55Z</time>
      </trkpt>
      <trkpt lat="45.77235" lon="4.63763">
        <ele>666</ele>
        <time>2009-06-28T11:22:05Z</time>
      </trkpt>
      <trkpt lat="45.77233" lon="4.63769">
        <ele>665</ele>
        <time>2009-06-28T11:22:11Z</time>
      </trkpt>
      <trkpt lat="45.77248" lon="4.63814">
        <ele>661</ele>
        <time>2009-06-28T11:22:25Z</time>
      </trkpt>
      <trkpt lat="45.77198" lon="4.63973">
        <ele>636</ele>
        <time>2009-06-28T11:22:40Z</time>
      </trkpt>
      <trkpt lat="45.77237" lon="4.64044">
        <ele>629</ele>
        <time>2009-06-28T11:22:57Z</time>
      </trkpt>
      <trkpt lat="45.77166" lon="4.64087">
        <ele>613</ele>
        <time>2009-06-28T11:23:30Z</time>
      </trkpt>
      <trkpt lat="45.7717" lon="4.64202">
        <ele>590</ele>
        <time>2009-06-28T11:23:49Z</time>
      </trkpt>
      <trkpt lat="45.77192" lon="4.6417">
        <ele>600</ele>
        <time>2009-06-28T11:27:31Z</time>
      </trkpt>
      <trkpt lat="45.77218" lon="4.64177">
        <ele>602</ele>
        <time>2009-06-28T11:27:46Z</time>
      </trkpt>
      <trkpt lat="45.77329" lon="4.64177">
        <ele>602</ele>
        <time>2009-06-28T11:28:38Z</time>
      </trkpt>
      <trkpt lat="45.7743" lon="4.63988">
        <ele>609</ele>
        <time>2009-06-28T11:29:22Z</time>
      </trkpt>
      <trkpt lat="45.77458" lon="4.63975">
        <ele>602</ele>
        <time>2009-06-28T11:29:33Z</time>
      </trkpt>
      <trkpt lat="45.77561" lon="4.63915">
        <ele>600</ele>
        <time>2009-06-28T11:29:55Z</time>
      </trkpt>
      <trkpt lat="45.77602" lon="4.63853">
        <ele>600</ele>
        <time>2009-06-28T11:30:15Z</time>
      </trkpt>
      <trkpt lat="45.77765" lon="4.63938">
        <ele>600</ele>
        <time>2009-06-28T11:31:06Z</time>
      </trkpt>
      <trkpt lat="45.77823" lon="4.64041">
        <ele>601</ele>
        <time>2009-06-28T11:31:36Z</time>
      </trkpt>
      <trkpt lat="45.78018" lon="4.64456">
        <ele>639</ele>
        <time>2009-06-28T11:34:55Z</time>
      </trkpt>
      <trkpt lat="45.78084" lon="4.64417">
        <ele>646</ele>
        <time>2009-06-28T11:37:02Z</time>
      </trkpt>
      <trkpt lat="45.78175" lon="4.64376">
        <ele>649</ele>
        <time>2009-06-28T11:37:36Z</time>
      </trkpt>
      <trkpt lat="45.78196" lon="4.64428">
        <ele>640</ele>
        <time>2009-06-28T11:37:49Z</time>
      </trkpt>
      <trkpt lat="45.78222" lon="4.64434">
        <ele>638</ele>
        <time>2009-06-28T11:37:59Z</time>
      </trkpt>
      <trkpt lat="45.78318" lon="4.64445">
        <ele>641</ele>
        <time>2009-06-28T11:38:39Z</time>
      </trkpt>
      <trkpt lat="45.78366" lon="4.64421">
        <ele>641</ele>
        <time>2009-06-28T11:39:15Z</time>
      </trkpt>
      <trkpt lat="45.78391" lon="4.64503">
        <ele>640</ele>
        <time>2009-06-28T11:39:39Z</time>
      </trkpt>
      <trkpt lat="45.7843" lon="4.64537">
        <ele>639</ele>
        <time>2009-06-28T11:39:49Z</time>
      </trkpt>
      <trkpt lat="45.78514" lon="4.64752">
        <ele>632</ele>
        <time>2009-06-28T11:40:37Z</time>
      </trkpt>
      <trkpt lat="45.78559" lon="4.64829">
        <ele>626</ele>
        <time>2009-06-28T11:41:06Z</time>
      </trkpt>
      <trkpt lat="45.78582" lon="4.64848">
        <ele>621</ele>
        <time>2009-06-28T11:41:17Z</time>
      </trkpt>
      <trkpt lat="45.78668" lon="4.6487">
        <ele>604</ele>
        <time>2009-06-28T11:42:01Z</time>
      </trkpt>
      <trkpt lat="45.7873" lon="4.65003">
        <ele>572</ele>
        <time>2009-06-28T11:42:34Z</time>
      </trkpt>
      <trkpt lat="45.78769" lon="4.64973">
        <ele>575</ele>
        <time>2009-06-28T11:43:18Z</time>
      </trkpt>
      <trkpt lat="45.78778" lon="4.64932">
        <ele>577</ele>
        <time>2009-06-28T11:43:37Z</time>
      </trkpt>
      <trkpt lat="45.78756" lon="4.6488">
        <ele>583</ele>
        <time>2009-06-28T11:43:46Z</time>
      </trkpt>
      <trkpt lat="45.78797" lon="4.64689">
        <ele>550</ele>
        <time>2009-06-28T11:43:56Z</time>
      </trkpt>
      <trkpt lat="45.7881" lon="4.64786">
        <ele>560</ele>
        <time>2009-06-28T11:45:24Z</time>
      </trkpt>
      <trkpt lat="45.78906" lon="4.65001">
        <ele>558</ele>
        <time>2009-06-28T11:46:25Z</time>
      </trkpt>
      <trkpt lat="45.78874" lon="4.6502">
        <ele>563</ele>
        <time>2009-06-28T11:46:33Z</time>
      </trkpt>
      <trkpt lat="45.78769" lon="4.65065">
        <ele>559</ele>
        <time>2009-06-28T11:46:54Z</time>
      </trkpt>
      <trkpt lat="45.78994" lon="4.65269">
        <ele>527</ele>
        <time>2009-06-28T11:47:10Z</time>
      </trkpt>
      <trkpt lat="45.79069" lon="4.65202">
        <ele>511</ele>
        <time>2009-06-28T11:47:53Z</time>
      </trkpt>
      <trkpt lat="45.79044" lon="4.64917">
        <ele>519</ele>
        <time>2009-06-28T11:48:22Z</time>
      </trkpt>
      <trkpt lat="45.79041" lon="4.6487">
        <ele>515</ele>
        <time>2009-06-28T11:48:35Z</time>
      </trkpt>
      <trkpt lat="45.78992" lon="4.64814">
        <ele>515</ele>
        <time>2009-06-28T11:48:51Z</time>
      </trkpt>
      <trkpt lat="45.79138" lon="4.64853">
        <ele>495</ele>
        <time>2009-06-28T11:49:35Z</time>
      </trkpt>
      <trkpt lat="45.79196" lon="4.64865">
        <ele>482</ele>
        <time>2009-06-28T11:49:53Z</time>
      </trkpt>
      <trkpt lat="45.79211" lon="4.64861">
        <ele>478</ele>
        <time>2009-06-28T11:50:00Z</time>
      </trkpt>
      <trkpt lat="45.79235" lon="4.64844">
        <ele>469</ele>
        <time>2009-06-28T11:50:13Z</time>
      </trkpt>
      <trkpt lat="45.79254" lon="4.64848">
        <ele>462</ele>
        <time>2009-06-28T11:50:19Z</time>
      </trkpt>
      <trkpt lat="45.7931" lon="4.64885">
        <ele>446</ele>
        <time>2009-06-28T11:50:34Z</time>
      </trkpt>
      <trkpt lat="45.79357" lon="4.64919">
        <ele>437</ele>
        <time>2009-06-28T11:50:51Z</time>
      </trkpt>
      <trkpt lat="45.79323" lon="4.64861">
        <ele>441</ele>
        <time>2009-06-28T11:53:06Z</time>
      </trkpt>
      <trkpt lat="45.79318" lon="4.64891">
        <ele>444</ele>
        <time>2009-06-28T11:55:13Z</time>
      </trkpt>
      <trkpt lat="45.79415" lon="4.64956">
        <ele>433</ele>
        <time>2009-06-28T11:56:19Z</time>
      </trkpt>
      <trkpt lat="45.79571" lon="4.6502">
        <ele>418</ele>
        <time>2009-06-28T11:56:21Z</time>
      </trkpt>
      <trkpt lat="45.79638" lon="4.65117">
        <ele>424</ele>
        <time>2009-06-28T11:56:53Z</time>
      </trkpt>
      <trkpt lat="45.79687" lon="4.65172">
        <ele>424</ele>
        <time>2009-06-28T11:57:18Z</time>
      </trkpt>
      <trkpt lat="45.79756" lon="4.65123">
        <ele>404</ele>
        <time>2009-06-28T11:57:29Z</time>
      </trkpt>
      <trkpt lat="45.79848" lon="4.6511">
        <ele>404</ele>
        <time>2009-06-28T11:57:36Z</time>
      </trkpt>
      <trkpt lat="45.7984" lon="4.65198">
        <ele>410</ele>
        <time>2009-06-28T11:58:16Z</time>
      </trkpt>
      <trkpt lat="45.79891" lon="4.65239">
        <ele>419</ele>
        <time>2009-06-28T11:58:50Z</time>
      </trkpt>
      <trkpt lat="45.80095" lon="4.65441">
        <ele>434</ele>
        <time>2009-06-28T12:01:00Z</time>
      </trkpt>
      <trkpt lat="45.80024" lon="4.65616">
        <ele>435</ele>
        <time>2009-06-28T12:04:48Z</time>
      </trkpt>
      <trkpt lat="45.79983" lon="4.65717">
        <ele>440</ele>
        <time>2009-06-28T12:05:17Z</time>
      </trkpt>
      <trkpt lat="45.79981" lon="4.65767">
        <ele>439</ele>
        <time>2009-06-28T12:05:36Z</time>
      </trkpt>
      <trkpt lat="45.80516" lon="4.66121">
        <ele>392</ele>
        <time>2009-06-28T12:06:52Z</time>
      </trkpt>
      <trkpt lat="45.80604" lon="4.66267">
        <ele>382</ele>
        <time>2009-06-28T12:07:32Z</time>
      </trkpt>
      <trkpt lat="45.80672" lon="4.66483">
        <ele>372</ele>
        <time>2009-06-28T12:08:09Z</time>
      </trkpt>
      <trkpt lat="45.80767" lon="4.6646">
        <ele>367</ele>
        <time>2009-06-28T12:08:25Z</time>
      </trkpt>
      <trkpt lat="45.80792" lon="4.6641">
        <ele>364</ele>
        <time>2009-06-28T12:08:32Z</time>
      </trkpt>
      <trkpt lat="45.80844" lon="4.66286">
        <ele>359</ele>
        <time>2009-06-28T12:08:44Z</time>
      </trkpt>
      <trkpt lat="45.81131" lon="4.66037">
        <ele>348</ele>
        <time>2009-06-28T12:09:32Z</time>
      </trkpt>
      <trkpt lat="45.81492" lon="4.66031">
        <ele>341</ele>
        <time>2009-06-28T12:10:34Z</time>
      </trkpt>
      <trkpt lat="45.81638" lon="4.66151">
        <ele>328</ele>
        <time>2009-06-28T12:10:58Z</time>
      </trkpt>
      <trkpt lat="45.81672" lon="4.66219">
        <ele>326</ele>
        <time>2009-06-28T12:11:08Z</time>
      </trkpt>
      <trkpt lat="45.81756" lon="4.66325">
        <ele>323</ele>
        <time>2009-06-28T12:11:27Z</time>
      </trkpt>
      <trkpt lat="45.81771" lon="4.66367">
        <ele>321</ele>
        <time>2009-06-28T12:11:32Z</time>
      </trkpt>
      <trkpt lat="45.81925" lon="4.66522">
        <ele>311</ele>
        <time>2009-06-28T12:11:57Z</time>
      </trkpt>
      <trkpt lat="45.82069" lon="4.66745">
        <ele>300</ele>
        <time>2009-06-28T12:12:20Z</time>
      </trkpt>
      <trkpt lat="45.82069" lon="4.66792">
        <ele>300</ele>
        <time>2009-06-28T12:12:25Z</time>
      </trkpt>
      <trkpt lat="45.82123" lon="4.66863">
        <ele>299</ele>
        <time>2009-06-28T12:12:36Z</time>
      </trkpt>
      <trkpt lat="45.82183" lon="4.66893">
        <ele>298</ele>
        <time>2009-06-28T12:12:47Z</time>
      </trkpt>
      <trkpt lat="45.82421" lon="4.66859">
        <ele>295</ele>
        <time>2009-06-28T12:13:27Z</time>
      </trkpt>
      <trkpt lat="45.82509" lon="4.66844">
        <ele>302</ele>
        <time>2009-06-28T12:13:47Z</time>
      </trkpt>
      <trkpt lat="45.82891" lon="4.66822">
        <ele>302</ele>
        <time>2009-06-28T12:15:22Z</time>
      </trkpt>
      <trkpt lat="45.83015" lon="4.66848">
        <ele>302</ele>
        <time>2009-06-28T12:15:52Z</time>
      </trkpt>
      <trkpt lat="45.82998" lon="4.67112">
        <ele>292</ele>
        <time>2009-06-28T12:16:23Z</time>
      </trkpt>
      <trkpt lat="45.83028" lon="4.67232">
        <ele>284</ele>
        <time>2009-06-28T12:16:35Z</time>
      </trkpt>
      <trkpt lat="45.82996" lon="4.67324">
        <ele>281</ele>
        <time>2009-06-28T12:16:44Z</time>
      </trkpt>
      <trkpt lat="45.83123" lon="4.67451">
        <ele>276</ele>
        <time>2009-06-28T12:17:08Z</time>
      </trkpt>
      <trkpt lat="45.83245" lon="4.67558">
        <ele>268</ele>
        <time>2009-06-28T12:17:29Z</time>
      </trkpt>
      <trkpt lat="45.8326" lon="4.6764">
        <ele>270</ele>
        <time>2009-06-28T12:17:41Z</time>
      </trkpt>
      <trkpt lat="45.83434" lon="4.67724">
        <ele>264</ele>
        <time>2009-06-28T12:18:13Z</time>
      </trkpt>
      <trkpt lat="45.83449" lon="4.67797">
        <ele>267</ele>
        <time>2009-06-28T12:18:22Z</time>
      </trkpt>
      <trkpt lat="45.83498" lon="4.67829">
        <ele>265</ele>
        <time>2009-06-28T12:18:32Z</time>
      </trkpt>
      <trkpt lat="45.83636" lon="4.67979">
        <ele>265</ele>
        <time>2009-06-28T12:19:05Z</time>
      </trkpt>
      <trkpt lat="45.83833" lon="4.68239">
        <ele>254</ele>
        <time>2009-06-28T12:19:47Z</time>
      </trkpt>
      <trkpt lat="45.84273" lon="4.68303">
        <ele>242</ele>
        <time>2009-06-28T12:21:01Z</time>
      </trkpt>
      <trkpt lat="45.84455" lon="4.68427">
        <ele>240</ele>
        <time>2009-06-28T12:21:34Z</time>
      </trkpt>
      <trkpt lat="45.84526" lon="4.68554">
        <ele>243</ele>
        <time>2009-06-28T12:21:58Z</time>
      </trkpt>
      <trkpt lat="45.84575" lon="4.68631">
        <ele>242</ele>
        <time>2009-06-28T12:22:31Z</time>
      </trkpt>
      <trkpt lat="45.84614" lon="4.68685">
        <ele>237</ele>
        <time>2009-06-28T12:22:38Z</time>
      </trkpt>
      <trkpt lat="45.84693" lon="4.6876">
        <ele>225</ele>
        <time>2009-06-28T12:22:46Z</time>
      </trkpt>
      <trkpt lat="45.84809" lon="4.68674">
        <ele>217</ele>
        <time>2009-06-28T12:23:03Z</time>
      </trkpt>
      <trkpt lat="45.85056" lon="4.68655">
        <ele>223</ele>
        <time>2009-06-28T12:23:52Z</time>
      </trkpt>
      <trkpt lat="45.85142" lon="4.68466">
        <ele>224</ele>
        <time>2009-06-28T12:24:31Z</time>
      </trkpt>
      <trkpt lat="45.85333" lon="4.68185">
        <ele>217</ele>
        <time>2009-06-28T12:25:21Z</time>
      </trkpt>
      <trkpt lat="45.85511" lon="4.68007">
        <ele>205</ele>
        <time>2009-06-28T12:25:51Z</time>
      </trkpt>
      <trkpt lat="45.85588" lon="4.67927">
        <ele>204</ele>
        <time>2009-06-28T12:26:15Z</time>
      </trkpt>
      <trkpt lat="45.8567" lon="4.68093">
        <ele>201</ele>
        <time>2009-06-28T12:26:49Z</time>
      </trkpt>
      <trkpt lat="45.85743" lon="4.6805">
        <ele>206</ele>
        <time>2009-06-28T12:27:17Z</time>
      </trkpt>
      <trkpt lat="45.85674" lon="4.68099">
        <ele>201</ele>
        <time>2009-06-28T12:38:00Z</time>
      </trkpt>
      <trkpt lat="45.85603" lon="4.67988">
        <ele>202</ele>
        <time>2009-06-28T12:38:25Z</time>
      </trkpt>
      <trkpt lat="45.85573" lon="4.67857">
        <ele>204</ele>
        <time>2009-06-28T12:38:49Z</time>
      </trkpt>
    </trkseg>
  </trk>
</gpx>